Time;durP1;ratioP1;P1;durP2;ratioP2;P2;SDS_P1;SDS_P2;PMS_P1;PMS_P2;Temp;Humidity;BMP_temperature;BMP_pressure;BME280_temperature;BME280_humidity;BME280_pressure;Samples;Min_cycle;Max_cycle;Signal;HPM_P1;HPM_P2
2023/08/29 00:02:22;;;;;;;6.00;3.50;;;;;;;;;;5013029;28;20205;-78
2023/08/29 00:04:49;;;;;;;6.50;3.40;;;;;;;;;;5012853;28;20225;-79
2023/08/29 00:07:16;;;;;;;5.00;3.20;;;;;;;;;;5012593;28;20239;-80
2023/08/29 00:09:43;;;;;;;7.17;3.40;;;;;;;;;;5012710;28;20205;-79
2023/08/29 00:12:10;;;;;;;6.50;3.40;;;;;;;;;;5012613;28;20296;-79
2023/08/29 00:14:40;;;;;;;5.13;3.43;;;;;;;;;;5012965;28;20228;-79
2023/08/29 00:17:08;;;;;;;6.10;3.47;;;;;;;;;;5012601;28;20201;-79
2023/08/29 00:19:35;;;;;;;5.60;3.23;;;;;;;;;;5012588;28;20252;-79
2023/08/29 00:22:02;;;;;;;6.53;3.60;;;;;;;;;;5012297;28;20908;-79
2023/08/29 00:24:29;;;;;;;6.53;3.80;;;;;;;;;;5013120;28;20251;-79
2023/08/29 00:26:57;;;;;;;6.30;3.87;;;;;;;;;;5012690;28;20217;-79
2023/08/29 00:29:26;;;;;;;8.10;3.60;;;;;;;;;;5012855;28;20229;-79
2023/08/29 00:31:54;;;;;;;5.73;3.63;;;;;;;;;;5012442;28;20197;-79
2023/08/29 00:34:21;;;;;;;8.43;3.73;;;;;;;;;;5012795;28;20288;-79
2023/08/29 00:36:49;;;;;;;6.47;3.30;;;;;;;;;;5012076;28;20280;-79
2023/08/29 00:39:16;;;;;;;4.67;3.50;;;;;;;;;;5011911;28;20760;-79
2023/08/29 00:41:45;;;;;;;6.30;3.40;;;;;;;;;;5012408;28;20732;-78
2023/08/29 00:44:12;;;;;;;8.13;3.70;;;;;;;;;;5012220;28;20208;-79
2023/08/29 00:46:39;;;;;;;6.37;3.70;;;;;;;;;;5012541;28;20252;-78
2023/08/29 00:49:08;;;;;;;8.43;3.70;;;;;;;;;;5012320;28;20251;-79
2023/08/29 00:51:35;;;;;;;7.53;3.87;;;;;;;;;;5011741;28;20205;-79
2023/08/29 00:54:03;;;;;;;7.50;3.90;;;;;;;;;;5012400;28;20197;-79
2023/08/29 00:56:30;;;;;;;5.63;3.40;;;;;;;;;;5012004;28;20717;-79
2023/08/29 00:58:58;;;;;;;5.93;3.60;;;;;;;;;;5012081;28;20743;-79
2023/08/29 01:01:25;;;;;;;6.63;3.40;;;;;;;;;;5011850;28;20220;-79
2023/08/29 01:03:52;;;;;;;5.07;3.60;;;;;;;;;;5012158;28;20259;-79
2023/08/29 01:06:21;;;;;;;7.63;3.70;;;;;;;;;;5011508;28;20550;-79
2023/08/29 01:08:49;;;;;;;5.27;3.13;;;;;;;;;;5012003;28;20204;-79
2023/08/29 01:11:21;;;;;;;3.50;3.13;;;;;;;;;;5011763;28;20208;-78
2023/08/29 01:13:50;;;;;;;6.43;3.70;;;;;;;;;;5011952;28;20224;-79
2023/08/29 01:16:18;;;;;;;5.60;3.63;;;;;;;;;;5011568;28;20258;-78
2023/08/29 01:18:46;;;;;;;5.23;3.50;;;;;;;;;;5011726;28;20261;-79
2023/08/29 01:21:17;;;;;;;5.13;3.50;;;;;;;;;;5011548;28;20197;-79
2023/08/29 01:23:47;;;;;;;5.67;3.30;;;;;;;;;;5011802;28;20870;-78
2023/08/29 01:26:16;;;;;;;5.60;3.53;;;;;;;;;;5011397;28;20204;-78
2023/08/29 01:28:45;;;;;;;6.57;3.37;;;;;;;;;;5011837;28;20670;-79
2023/08/29 01:31:13;;;;;;;4.60;3.37;;;;;;;;;;5012201;28;20271;-79
2023/08/29 01:33:40;;;;;;;5.50;3.13;;;;;;;;;;5011383;28;20209;-79
2023/08/29 01:36:07;;;;;;;5.90;3.40;;;;;;;;;;5011778;28;20635;-79
2023/08/29 01:38:34;;;;;;;6.87;3.00;;;;;;;;;;5011326;28;20233;-78
2023/08/29 01:41:02;;;;;;;6.27;3.20;;;;;;;;;;5011433;28;20205;-79
2023/08/29 01:43:30;;;;;;;5.97;3.03;;;;;;;;;;5011371;28;20630;-79
2023/08/29 01:45:58;;;;;;;9.60;3.50;;;;;;;;;;5011498;28;20283;-78
2023/08/29 01:48:25;;;;;;;7.60;3.20;;;;;;;;;;5011243;28;20220;-78
2023/08/29 01:50:52;;;;;;;7.47;3.67;;;;;;;;;;5011854;28;20287;-78
2023/08/29 01:53:20;;;;;;;4.97;2.90;;;;;;;;;;5011315;28;20211;-79
2023/08/29 01:55:48;;;;;;;5.50;2.93;;;;;;;;;;5011491;28;20197;-79
2023/08/29 01:58:16;;;;;;;6.27;3.83;;;;;;;;;;5011083;28;20287;-79
2023/08/29 02:00:45;;;;;;;7.47;3.47;;;;;;;;;;5011346;28;20229;-78
2023/08/29 02:03:12;;;;;;;7.23;3.60;;;;;;;;;;5011191;28;20231;-78
2023/08/29 02:05:41;;;;;;;8.00;3.60;;;;;;;;;;5011176;28;20229;-79
2023/08/29 02:08:08;;;;;;;6.47;3.37;;;;;;;;;;5011166;28;20197;-78
2023/08/29 02:10:35;;;;;;;6.23;3.40;;;;;;;;;;5011484;28;20283;-79
2023/08/29 02:13:03;;;;;;;6.47;3.20;;;;;;;;;;5010848;28;20284;-78
2023/08/29 02:15:30;;;;;;;5.87;3.70;;;;;;;;;;5010958;28;20287;-79
2023/08/29 02:17:58;;;;;;;5.87;3.50;;;;;;;;;;5011402;28;20205;-78
2023/08/29 02:20:26;;;;;;;5.97;3.40;;;;;;;;;;5011282;28;20224;-79
2023/08/29 02:22:53;;;;;;;7.10;3.60;;;;;;;;;;5010559;28;20229;-79
2023/08/29 02:25:20;;;;;;;7.43;3.63;;;;;;;;;;5011330;28;20224;-78
2023/08/29 02:27:48;;;;;;;8.33;3.60;;;;;;;;;;5011176;28;20247;-79
2023/08/29 02:30:15;;;;;;;5.37;3.60;;;;;;;;;;5010411;28;20236;-79
2023/08/29 02:32:42;;;;;;;7.13;3.90;;;;;;;;;;5010828;28;20251;-79
2023/08/29 02:35:11;;;;;;;6.00;4.20;;;;;;;;;;5014030;28;20231;-79
2023/08/29 02:37:40;;;;;;;8.00;4.00;;;;;;;;;;5014618;28;20640;-79
2023/08/29 02:40:08;;;;;;;9.70;3.50;;;;;;;;;;5014553;28;20257;-79
2023/08/29 02:42:35;;;;;;;7.37;4.00;;;;;;;;;;5014657;28;20201;-78
2023/08/29 02:45:03;;;;;;;9.13;4.53;;;;;;;;;;5014579;28;20225;-79
2023/08/29 02:47:30;;;;;;;8.27;4.23;;;;;;;;;;5014264;28;20292;-78
2023/08/29 02:49:57;;;;;;;9.17;4.10;;;;;;;;;;5014371;28;20672;-79
2023/08/29 02:52:26;;;;;;;8.13;4.33;;;;;;;;;;5014196;28;20255;-79
2023/08/29 02:54:53;;;;;;;12.37;4.37;;;;;;;;;;5014389;28;20220;-79
2023/08/29 02:57:20;;;;;;;7.53;4.13;;;;;;;;;;5014653;28;20228;-79
2023/08/29 02:59:49;;;;;;;8.53;4.23;;;;;;;;;;5013879;28;20249;-79
2023/08/29 03:02:16;;;;;;;8.53;4.53;;;;;;;;;;5014018;28;20239;-78
2023/08/29 03:04:43;;;;;;;7.63;4.50;;;;;;;;;;5014195;28;20236;-79
2023/08/29 03:07:10;;;;;;;8.33;4.67;;;;;;;;;;5014443;28;20280;-79
2023/08/29 03:09:39;;;;;;;8.90;4.20;;;;;;;;;;5014642;28;20292;-79
2023/08/29 03:12:06;;;;;;;8.60;4.70;;;;;;;;;;5014244;28;20205;-79
2023/08/29 03:14:34;;;;;;;7.53;4.07;;;;;;;;;;5013967;28;20296;-79
2023/08/29 03:17:01;;;;;;;10.90;4.57;;;;;;;;;;5013867;28;20666;-79
2023/08/29 03:19:28;;;;;;;8.67;4.40;;;;;;;;;;5013673;28;20673;-79
2023/08/29 03:21:55;;;;;;;8.17;4.30;;;;;;;;;;5013941;28;20695;-78
2023/08/29 03:24:23;;;;;;;6.87;4.13;;;;;;;;;;5013609;28;20292;-78
2023/08/29 03:26:51;;;;;;;7.40;3.83;;;;;;;;;;5013806;28;20259;-79
2023/08/29 03:29:18;;;;;;;7.13;4.17;;;;;;;;;;5013944;28;20197;-79
2023/08/29 03:31:46;;;;;;;8.13;3.97;;;;;;;;;;5013440;28;20731;-79
2023/08/29 03:34:13;;;;;;;5.50;3.60;;;;;;;;;;5013763;28;20674;-79
2023/08/29 03:36:40;;;;;;;8.17;3.87;;;;;;;;;;5013067;28;20233;-78
2023/08/29 03:39:07;;;;;;;6.93;3.50;;;;;;;;;;5013591;28;20193;-79
2023/08/29 03:41:35;;;;;;;7.43;3.70;;;;;;;;;;5013235;28;20224;-79
2023/08/29 03:44:05;;;;;;;8.80;3.87;;;;;;;;;;5013276;28;20215;-79
2023/08/29 03:46:32;;;;;;;7.80;3.60;;;;;;;;;;5012935;28;20193;-79
2023/08/29 03:48:59;;;;;;;8.40;3.47;;;;;;;;;;5013857;28;20656;-79
2023/08/29 03:51:26;;;;;;;6.87;3.30;;;;;;;;;;5013075;28;20274;-80
2023/08/29 03:53:54;;;;;;;9.43;4.17;;;;;;;;;;5012997;28;20201;-79
2023/08/29 03:56:21;;;;;;;8.37;3.83;;;;;;;;;;5013160;28;20704;-79
2023/08/29 03:58:49;;;;;;;7.90;3.13;;;;;;;;;;5012451;28;20264;-79
2023/08/29 04:01:19;;;;;;;9.73;3.47;;;;;;;;;;5009467;28;20437;-79
2023/08/29 04:03:47;;;;;;;7.50;3.30;;;;;;;;;;4993862;28;20204;-78
2023/08/29 04:06:14;;;;;;;7.23;3.20;;;;;;;;;;4993320;28;20289;-79
2023/08/29 04:08:41;;;;;;;5.23;3.00;;;;;;;;;;4993594;28;20285;-79
2023/08/29 04:11:09;;;;;;;9.30;3.63;;;;;;;;;;4997038;28;20276;-79
2023/08/29 04:13:36;;;;;;;7.43;3.37;;;;;;;;;;5012827;28;20224;-80
2023/08/29 04:16:03;;;;;;;6.93;3.00;;;;;;;;;;5012727;28;20200;-80
2023/08/29 04:18:32;;;;;;;7.23;3.07;;;;;;;;;;5012645;28;20292;-78
2023/08/29 04:21:00;;;;;;;8.23;2.93;;;;;;;;;;5012566;28;20721;-79
2023/08/29 04:23:27;;;;;;;6.13;2.80;;;;;;;;;;5012934;28;20208;-79
2023/08/29 04:25:59;;;;;;;12.20;3.53;;;;;;;;;;5012548;28;20229;-79
2023/08/29 04:28:26;;;;;;;9.47;3.13;;;;;;;;;;5012501;28;20296;-79
2023/08/29 04:30:54;;;;;;;5.47;2.73;;;;;;;;;;5012980;28;20201;-79
2023/08/29 04:33:21;;;;;;;5.97;2.80;;;;;;;;;;5012838;28;20197;-79
2023/08/29 04:35:52;;;;;;;8.37;2.97;;;;;;;;;;5012531;28;20205;-79
2023/08/29 04:38:20;;;;;;;7.80;3.00;;;;;;;;;;5012327;28;20264;-80
2023/08/29 04:40:47;;;;;;;6.27;2.50;;;;;;;;;;5012508;28;20233;-78
2023/08/29 04:43:14;;;;;;;5.27;2.60;;;;;;;;;;5002737;28;20292;-79
2023/08/29 04:45:43;;;;;;;8.30;3.20;;;;;;;;;;4992988;28;20288;-79
2023/08/29 04:48:10;;;;;;;6.23;2.97;;;;;;;;;;4992575;28;20202;-79
2023/08/29 04:50:39;;;;;;;7.97;3.37;;;;;;;;;;4992683;28;20230;-79
2023/08/29 04:53:08;;;;;;;6.87;3.40;;;;;;;;;;4992823;28;20197;-78
2023/08/29 04:55:35;;;;;;;8.93;3.40;;;;;;;;;;4992459;28;20722;-77
2023/08/29 04:58:02;;;;;;;5.87;3.37;;;;;;;;;;4991437;28;20208;-78
2023/08/29 05:00:29;;;;;;;7.87;3.60;;;;;;;;;;4995690;28;20690;-79
2023/08/29 05:02:57;;;;;;;8.87;4.20;;;;;;;;;;5000074;28;20229;-77
2023/08/29 05:05:24;;;;;;;8.20;4.17;;;;;;;;;;5010520;28;20240;-79
2023/08/29 05:07:51;;;;;;;8.07;4.20;;;;;;;;;;5009683;28;20678;-81
2023/08/29 05:10:19;;;;;;;7.80;4.57;;;;;;;;;;4992343;28;20233;-79
2023/08/29 05:12:47;;;;;;;8.27;4.27;;;;;;;;;;4992228;28;20721;-79
2023/08/29 05:15:14;;;;;;;9.80;4.53;;;;;;;;;;4992388;28;20256;-80
2023/08/29 05:17:41;;;;;;;8.10;4.47;;;;;;;;;;5002497;28;20205;-80
2023/08/29 05:20:09;;;;;;;11.00;4.77;;;;;;;;;;5011749;28;20649;-80
2023/08/29 05:22:37;;;;;;;8.13;4.77;;;;;;;;;;5012200;28;20248;-79
2023/08/29 05:25:05;;;;;;;7.37;4.57;;;;;;;;;;5011788;28;20559;-79
2023/08/29 05:27:34;;;;;;;12.00;4.90;;;;;;;;;;5011280;28;20197;-80
2023/08/29 05:30:01;;;;;;;10.43;4.27;;;;;;;;;;5011530;28;20201;-79
2023/08/29 05:32:29;;;;;;;7.33;3.97;;;;;;;;;;5011567;28;20285;-79
2023/08/29 05:34:56;;;;;;;7.50;4.00;;;;;;;;;;5011945;28;20224;-79
2023/08/29 05:37:23;;;;;;;8.57;4.60;;;;;;;;;;5011668;28;20240;-80
2023/08/29 05:39:51;;;;;;;9.27;4.10;;;;;;;;;;5011695;28;20212;-80
2023/08/29 05:42:19;;;;;;;8.87;4.47;;;;;;;;;;5011461;28;20665;-79
2023/08/29 05:44:47;;;;;;;9.00;4.17;;;;;;;;;;5011616;28;20299;-81
2023/08/29 05:47:14;;;;;;;9.13;4.17;;;;;;;;;;5011560;28;20287;-80
2023/08/29 05:49:42;;;;;;;6.67;4.10;;;;;;;;;;5009809;28;20643;-80
2023/08/29 05:52:09;;;;;;;9.30;4.33;;;;;;;;;;5004384;28;20553;-79
2023/08/29 05:54:37;;;;;;;7.10;3.80;;;;;;;;;;4998684;28;20205;-80
2023/08/29 05:57:05;;;;;;;9.40;4.30;;;;;;;;;;5009420;28;20616;-81
2023/08/29 05:59:33;;;;;;;6.53;4.00;;;;;;;;;;5010385;28;20722;-80
2023/08/29 06:02:03;;;;;;;9.87;4.40;;;;;;;;;;5011229;28;20255;-78
2023/08/29 06:04:30;;;;;;;9.33;4.13;;;;;;;;;;5010528;28;20204;-80
2023/08/29 06:06:57;;;;;;;10.23;4.10;;;;;;;;;;5011216;28;20221;-79
2023/08/29 06:09:24;;;;;;;8.07;3.93;;;;;;;;;;5014159;28;20287;-81
2023/08/29 06:11:51;;;;;;;6.77;3.83;;;;;;;;;;5014973;28;20700;-81
2023/08/29 06:14:19;;;;;;;6.57;3.77;;;;;;;;;;5014155;28;20245;-81
2023/08/29 06:16:46;;;;;;;7.90;4.10;;;;;;;;;;5014984;28;20193;-80
2023/08/29 06:19:14;;;;;;;7.23;3.93;;;;;;;;;;5014903;28;20247;-81
2023/08/29 06:21:42;;;;;;;6.33;3.80;;;;;;;;;;5014566;28;20229;-81
2023/08/29 06:24:09;;;;;;;7.33;4.10;;;;;;;;;;5014303;28;20193;-82
2023/08/29 06:26:37;;;;;;;6.60;3.90;;;;;;;;;;5014740;28;20288;-81
2023/08/29 06:29:04;;;;;;;6.87;4.20;;;;;;;;;;5014365;28;20669;-81
2023/08/29 06:31:31;;;;;;;6.90;3.90;;;;;;;;;;5015253;28;20205;-80
2023/08/29 06:33:59;;;;;;;11.27;4.20;;;;;;;;;;5014609;28;20631;-82
2023/08/29 06:36:28;;;;;;;6.40;3.47;;;;;;;;;;5008792;28;20638;-81
2023/08/29 06:38:55;;;;;;;8.47;4.20;;;;;;;;;;5013627;28;20201;-82
2023/08/29 06:41:22;;;;;;;7.20;3.80;;;;;;;;;;5013974;28;20264;-81
2023/08/29 06:43:49;;;;;;;10.27;4.23;;;;;;;;;;5014484;28;20209;-82
2023/08/29 06:46:17;;;;;;;6.70;3.73;;;;;;;;;;4995218;28;20312;-81
2023/08/29 06:48:45;;;;;;;6.67;3.60;;;;;;;;;;4994706;28;20281;-81
2023/08/29 06:51:12;;;;;;;8.77;3.83;;;;;;;;;;4994707;28;20201;-82
2023/08/29 06:53:41;;;;;;;9.43;3.93;;;;;;;;;;4993831;28;20253;-81
2023/08/29 06:56:08;;;;;;;8.50;4.33;;;;;;;;;;5012615;28;20296;-81
2023/08/29 06:58:35;;;;;;;8.70;4.03;;;;;;;;;;5013945;28;20283;-81
2023/08/29 07:01:02;;;;;;;9.67;4.03;;;;;;;;;;5013771;28;20240;-81
2023/08/29 07:03:29;;;;;;;7.13;3.80;;;;;;;;;;5013873;28;20220;-81
2023/08/29 07:05:57;;;;;;;6.20;3.40;;;;;;;;;;5005327;28;20206;-81
2023/08/29 07:08:25;;;;;;;8.03;3.80;;;;;;;;;;4994040;28;20675;-81
2023/08/29 07:10:53;;;;;;;7.20;3.90;;;;;;;;;;4994465;28;20277;-81
2023/08/29 07:13:20;;;;;;;7.43;3.80;;;;;;;;;;4994024;28;20345;-81
2023/08/29 07:15:48;;;;;;;7.50;3.73;;;;;;;;;;4994188;28;20228;-81
2023/08/29 07:18:15;;;;;;;9.87;3.80;;;;;;;;;;5009100;28;20207;-82
2023/08/29 07:20:42;;;;;;;6.00;3.60;;;;;;;;;;5012631;28;20315;-81
2023/08/29 07:23:09;;;;;;;5.87;3.70;;;;;;;;;;5013709;28;20197;-81
2023/08/29 07:25:38;;;;;;;7.73;3.77;;;;;;;;;;5013402;28;20229;-81
2023/08/29 07:28:07;;;;;;;7.43;3.90;;;;;;;;;;5013065;28;20252;-81
2023/08/29 07:30:34;;;;;;;5.53;3.57;;;;;;;;;;5013353;28;20630;-81
2023/08/29 07:33:02;;;;;;;8.20;3.70;;;;;;;;;;5013316;28;20207;-81
2023/08/29 07:35:29;;;;;;;6.80;3.27;;;;;;;;;;5013429;28;20208;-81
2023/08/29 07:37:56;;;;;;;6.73;3.87;;;;;;;;;;5013000;28;20745;-80
2023/08/29 07:40:23;;;;;;;9.23;3.77;;;;;;;;;;5012993;28;20655;-79
2023/08/29 07:42:51;;;;;;;6.47;3.87;;;;;;;;;;5013309;28;20204;-81
2023/08/29 07:45:20;;;;;;;8.60;3.47;;;;;;;;;;5013398;28;20296;-81
2023/08/29 07:47:47;;;;;;;8.13;3.13;;;;;;;;;;5013539;28;20663;-81
2023/08/29 07:50:14;;;;;;;5.88;2.60;;;;;;;;;;5012479;28;20197;-82
2023/08/29 07:52:41;;;;;;;6.70;2.88;;;;;;;;;;5013193;28;20236;-81
2023/08/29 07:55:09;;;;;;;7.05;3.20;;;;;;;;;;5012652;28;20284;-81
2023/08/29 07:57:36;;;;;;;4.57;2.70;;;;;;;;;;5012906;28;20288;-81
2023/08/29 08:00:05;;;;;;;6.10;3.72;;;;;;;;;;5012681;28;20291;-81
2023/08/29 08:02:38;;;;;;;5.15;2.70;;;;;;;;;;5012889;28;20950;-81
2023/08/29 08:05:05;;;;;;;5.00;2.80;;;;;;;;;;5012653;28;20197;-81
2023/08/29 08:07:32;;;;;;;6.10;2.55;;;;;;;;;;5010087;28;20255;-80
2023/08/29 08:10:00;;;;;;;7.47;2.80;;;;;;;;;;4993304;28;20288;-82
2023/08/29 08:12:27;;;;;;;5.25;2.80;;;;;;;;;;4993292;28;20293;-81
2023/08/29 08:14:54;;;;;;;4.25;2.00;;;;;;;;;;5006021;28;20244;-83
2023/08/29 08:17:21;;;;;;;4.75;2.42;;;;;;;;;;5012481;28;20271;-84
2023/08/29 08:19:50;;;;;;;5.20;2.35;;;;;;;;;;5012699;28;20259;-84
2023/08/29 08:22:18;;;;;;;4.68;2.42;;;;;;;;;;5012617;28;20255;-82
2023/08/29 08:24:45;;;;;;;3.47;2.03;;;;;;;;;;5012555;28;20294;-82
2023/08/29 08:27:12;;;;;;;3.78;2.10;;;;;;;;;;5012734;28;20201;-84
2023/08/29 08:29:39;;;;;;;4.40;1.80;;;;;;;;;;5012118;28;20197;-82
2023/08/29 08:32:07;;;;;;;4.07;2.10;;;;;;;;;;4661810;28;9999958;-82
2023/08/29 08:34:34;;;;;;;4.22;2.20;;;;;;;;;;4988869;28;20264;-83
2023/08/29 08:37:02;;;;;;;3.40;1.90;;;;;;;;;;4989303;28;20233;-81
2023/08/29 08:39:31;;;;;;;9.30;2.65;;;;;;;;;;4989343;28;20297;-81
2023/08/29 08:41:58;;;;;;;5.03;2.13;;;;;;;;;;4989495;28;20316;-82
2023/08/29 08:44:26;;;;;;;5.53;2.10;;;;;;;;;;4989150;28;20204;-82
2023/08/29 08:46:53;;;;;;;4.07;2.03;;;;;;;;;;4989096;28;20300;-83
2023/08/29 08:49:21;;;;;;;5.15;2.10;;;;;;;;;;4989252;28;20205;-82
2023/08/29 08:51:49;;;;;;;6.38;2.00;;;;;;;;;;4989470;28;20204;-82
2023/08/29 08:54:17;;;;;;;6.00;2.10;;;;;;;;;;4989033;28;20202;-81
2023/08/29 08:56:45;;;;;;;4.18;2.40;;;;;;;;;;4989208;28;20221;-82
2023/08/29 08:59:12;;;;;;;3.88;1.75;;;;;;;;;;4988851;28;20323;-82
2023/08/29 09:01:39;;;;;;;4.28;2.30;;;;;;;;;;4988976;28;20357;-81
2023/08/29 09:04:07;;;;;;;4.97;2.55;;;;;;;;;;4995196;28;20729;-81
2023/08/29 09:06:34;;;;;;;4.18;2.10;;;;;;;;;;5006507;28;20576;-81
2023/08/29 09:09:16;;;;;;;3.10;2.08;;;;;;;;;;5011676;28;20235;-82
2023/08/29 09:11:45;;;;;;;3.20;2.03;;;;;;;;;;5011606;28;20654;-81
2023/08/29 09:14:12;;;;;;;4.47;2.00;;;;;;;;;;5011702;28;20283;-82
2023/08/29 09:16:39;;;;;;;2.95;2.15;;;;;;;;;;5011935;28;20200;-84
2023/08/29 09:19:06;;;;;;;4.20;1.92;;;;;;;;;;5011361;28;20233;-82
2023/08/29 09:21:36;;;;;;;3.28;1.92;;;;;;;;;;5011585;28;20306;-82
2023/08/29 09:24:04;;;;;;;2.97;2.10;;;;;;;;;;5011417;28;20199;-82
2023/08/29 09:26:32;;;;;;;3.75;1.80;;;;;;;;;;5011770;28;20237;-81
2023/08/29 09:29:01;;;;;;;3.72;1.90;;;;;;;;;;5011367;28;20207;-82
2023/08/29 09:31:30;;;;;;;4.22;1.92;;;;;;;;;;5011426;28;20255;-82
2023/08/29 09:33:57;;;;;;;3.78;1.60;;;;;;;;;;5011642;28;20197;-83
2023/08/29 09:36:24;;;;;;;3.50;1.95;;;;;;;;;;5011326;28;20247;-82
2023/08/29 09:38:52;;;;;;;4.13;1.63;;;;;;;;;;5008184;28;20682;-81
2023/08/29 09:41:19;;;;;;;4.13;1.70;;;;;;;;;;5014264;28;20252;-82
2023/08/29 09:43:49;;;;;;;5.55;2.00;;;;;;;;;;5007273;28;20267;-81
2023/08/29 09:46:23;;;;;;;3.17;1.88;;;;;;;;;;5009060;28;20613;-82
2023/08/29 09:48:56;;;;;;;3.75;1.80;;;;;;;;;;5010407;28;20203;-82
2023/08/29 09:51:25;;;;;;;4.03;1.70;;;;;;;;;;5011443;28;20678;-84
2023/08/29 09:53:53;;;;;;;4.68;1.83;;;;;;;;;;5010623;28;20212;-85
2023/08/29 09:56:21;;;;;;;2.75;2.20;;;;;;;;;;5011067;28;20205;-86
2023/08/29 09:58:50;;;;;;;3.53;2.00;;;;;;;;;;5011683;28;20314;-85
2023/08/29 10:01:18;;;;;;;3.55;2.00;;;;;;;;;;5010900;28;20684;-85
2023/08/29 10:03:48;;;;;;;3.25;1.77;;;;;;;;;;5011430;28;20228;-86
2023/08/29 10:06:17;;;;;;;3.22;1.98;;;;;;;;;;5011349;28;20332;-87
2023/08/29 10:08:46;;;;;;;4.68;1.83;;;;;;;;;;5011765;28;20204;-85
2023/08/29 10:11:13;;;;;;;4.55;1.73;;;;;;;;;;5010792;28;20201;-86
2023/08/29 10:13:41;;;;;;;4.03;1.70;;;;;;;;;;5010863;28;20199;-86
2023/08/29 10:16:09;;;;;;;3.90;1.92;;;;;;;;;;5010754;28;20674;-85
2023/08/29 10:18:35;;;;;;;3.00;1.75;;;;;;;;;;5010875;28;20291;-85
2023/08/29 10:21:06;;;;;;;3.10;1.55;;;;;;;;;;5011163;28;20197;-86
2023/08/29 10:23:33;;;;;;;6.72;2.08;;;;;;;;;;5011443;28;20259;-85
2023/08/29 10:26:01;;;;;;;3.70;1.58;;;;;;;;;;5011269;28;20221;-85
2023/08/29 10:28:30;;;;;;;4.68;1.70;;;;;;;;;;5010892;28;20248;-85
2023/08/29 10:31:01;;;;;;;5.07;1.70;;;;;;;;;;5011360;28;20231;-87
2023/08/29 10:33:32;;;;;;;3.83;1.50;;;;;;;;;;5012632;28;20289;-90
2023/08/29 10:36:03;;;;;;;2.33;1.63;;;;;;;;;;5011992;28;20197;-85
2023/08/29 10:38:32;;;;;;;5.82;1.77;;;;;;;;;;5013091;28;20201;-88
2023/08/29 10:41:06;;;;;;;2.90;1.80;;;;;;;;;;4997971;28;20241;-87
2023/08/29 10:43:34;;;;;;;3.55;1.60;;;;;;;;;;4990866;28;20233;-83
2023/08/29 10:46:15;;;;;;;3.25;1.67;;;;;;;;;;4990797;28;20229;-85
2023/08/29 10:48:53;;;;;;;3.47;1.40;;;;;;;;;;4991096;28;20300;-83
2023/08/29 10:51:24;;;;;;;3.38;1.50;;;;;;;;;;4991094;28;20209;-83
2023/08/29 10:53:54;;;;;;;4.47;1.63;;;;;;;;;;4991128;28;20198;-83
2023/08/29 10:56:24;;;;;;;4.03;1.70;;;;;;;;;;4994310;28;20233;-83
2023/08/29 10:58:52;;;;;;;3.63;1.60;;;;;;;;;;4994249;28;20684;-84
2023/08/29 11:01:33;;;;;;;3.58;1.55;;;;;;;;;;4994283;28;20202;-82
2023/08/29 11:04:03;;;;;;;4.57;1.42;;;;;;;;;;4994703;28;20264;-84
2023/08/29 11:06:45;;;;;;;3.55;1.63;;;;;;;;;;5008866;28;20292;-83
2023/08/29 11:09:21;;;;;;;2.72;1.20;;;;;;;;;;5013740;28;20288;-84
2023/08/29 11:12:08;;;;;;;2.47;1.38;;;;;;;;;;5014025;28;20204;-83
2023/08/29 11:14:51;;;;;;;4.82;1.30;;;;;;;;;;5013765;28;20224;-84
2023/08/29 11:17:23;;;;;;;1.88;1.40;;;;;;;;;;5014660;28;20201;-87
2023/08/29 11:19:52;;;;;;;2.33;1.33;;;;;;;;;;5014989;28;20627;-87
2023/08/29 11:22:22;;;;;;;3.40;1.50;;;;;;;;;;5014772;28;20615;-86
2023/08/29 11:24:55;;;;;;;4.28;1.58;;;;;;;;;;5014615;28;20190;-84
2023/08/29 11:27:23;;;;;;;3.47;1.70;;;;;;;;;;5014380;28;20201;-88
2023/08/29 11:29:52;;;;;;;2.22;1.45;;;;;;;;;;5014002;28;20198;-84
2023/08/29 11:32:20;;;;;;;4.20;1.70;;;;;;;;;;5014709;28;20670;-85
2023/08/29 11:34:52;;;;;;;4.32;1.40;;;;;;;;;;5014564;28;20204;-84
2023/08/29 11:37:21;;;;;;;3.20;1.60;;;;;;;;;;5015482;28;20201;-88
2023/08/29 11:39:55;;;;;;;3.35;1.30;;;;;;;;;;5014317;28;20193;-86
2023/08/29 11:42:25;;;;;;;4.35;1.63;;;;;;;;;;5013588;28;20231;-86
2023/08/29 11:44:54;;;;;;;3.83;1.33;;;;;;;;;;5014213;28;20197;-86
2023/08/29 11:47:23;;;;;;;2.45;1.33;;;;;;;;;;5014628;28;20295;-86
2023/08/29 11:49:51;;;;;;;4.28;1.65;;;;;;;;;;5014764;28;20574;-86
2023/08/29 11:52:19;;;;;;;2.95;1.35;;;;;;;;;;5014310;28;20212;-87
2023/08/29 11:54:48;;;;;;;3.20;1.45;;;;;;;;;;5014683;28;20193;-87
2023/08/29 11:57:17;;;;;;;3.72;1.63;;;;;;;;;;5014483;28;20209;-87
2023/08/29 11:59:45;;;;;;;3.90;1.65;;;;;;;;;;5013634;28;20803;-86
2023/08/29 12:02:13;;;;;;;2.15;1.20;;;;;;;;;;5014035;28;20233;-87
2023/08/29 12:04:41;;;;;;;4.72;1.50;;;;;;;;;;5014238;28;20211;-87
2023/08/29 12:07:09;;;;;;;2.90;1.92;;;;;;;;;;5014025;28;20235;-87
2023/08/29 12:09:38;;;;;;;4.32;1.85;;;;;;;;;;5014250;28;20201;-89
2023/08/29 12:12:06;;;;;;;2.00;1.35;;;;;;;;;;5014429;28;20205;-86
2023/08/29 12:14:48;;;;;;;4.53;1.60;;;;;;;;;;5013945;28;20232;-86
2023/08/29 12:17:17;;;;;;;3.47;1.30;;;;;;;;;;5014096;28;20284;-88
2023/08/29 12:19:45;;;;;;;4.70;1.38;;;;;;;;;;5014182;28;20205;-86
2023/08/29 12:22:12;;;;;;;3.70;1.67;;;;;;;;;;5014259;28;20323;-86
2023/08/29 12:24:40;;;;;;;2.00;1.30;;;;;;;;;;5003253;28;20653;-86
2023/08/29 12:27:08;;;;;;;1.65;1.10;;;;;;;;;;4994088;28;20201;-88
2023/08/29 12:29:36;;;;;;;2.13;1.05;;;;;;;;;;4994172;28;20205;-86
2023/08/29 12:32:04;;;;;;;6.32;1.45;;;;;;;;;;5010989;28;20209;-88
2023/08/29 12:34:32;;;;;;;1.98;1.08;;;;;;;;;;5013944;28;20197;-87
2023/08/29 12:36:59;;;;;;;2.83;1.00;;;;;;;;;;4994427;28;20296;-87
2023/08/29 12:39:27;;;;;;;2.78;1.40;;;;;;;;;;4994380;28;20232;-87
2023/08/29 12:41:54;;;;;;;2.15;1.27;;;;;;;;;;4993457;28;20598;-89
2023/08/29 12:44:22;;;;;;;2.45;1.17;;;;;;;;;;4994417;28;20632;-89
2023/08/29 12:46:49;;;;;;;2.45;1.40;;;;;;;;;;4994531;28;20201;-88
2023/08/29 12:49:17;;;;;;;2.83;1.45;;;;;;;;;;4994347;28;20754;-88
2023/08/29 12:51:46;;;;;;;3.28;1.63;;;;;;;;;;4994432;28;20194;-88
2023/08/29 12:54:13;;;;;;;1.98;1.20;;;;;;;;;;4994558;28;20190;-87
2023/08/29 12:56:41;;;;;;;1.35;1.10;;;;;;;;;;4994144;28;20563;-88
2023/08/29 12:59:08;;;;;;;1.90;1.00;;;;;;;;;;4994066;28;20329;-89
2023/08/29 13:01:35;;;;;;;2.35;1.40;;;;;;;;;;4994673;28;20622;-87
2023/08/29 13:04:03;;;;;;;2.17;1.40;;;;;;;;;;4993937;28;20285;-87
2023/08/29 13:06:31;;;;;;;3.30;1.30;;;;;;;;;;4994604;28;20198;-88
2023/08/29 13:09:00;;;;;;;2.40;1.20;;;;;;;;;;4994537;28;20229;-87
2023/08/29 13:11:27;;;;;;;3.00;1.30;;;;;;;;;;5008530;28;20299;-87
2023/08/29 13:13:54;;;;;;;3.13;1.30;;;;;;;;;;5013970;28;20295;-89
2023/08/29 13:16:31;;;;;;;2.70;1.23;;;;;;;;;;5013762;28;20665;-87
2023/08/29 13:18:59;;;;;;;3.03;1.35;;;;;;;;;;4993661;28;20284;-88
2023/08/29 13:21:26;;;;;;;3.67;1.38;;;;;;;;;;4993917;28;20292;-88
2023/08/29 13:23:54;;;;;;;3.10;1.30;;;;;;;;;;4993952;28;20314;-87
2023/08/29 13:26:23;;;;;;;1.88;1.30;;;;;;;;;;4994012;28;20244;-88
2023/08/29 13:28:52;;;;;;;2.88;1.63;;;;;;;;;;4993061;28;20252;-88
2023/08/29 13:31:20;;;;;;;2.95;1.40;;;;;;;;;;4993823;28;20205;-87
2023/08/29 13:33:48;;;;;;;2.55;1.40;;;;;;;;;;4993630;28;20210;-88
2023/08/29 13:36:16;;;;;;;3.50;1.48;;;;;;;;;;4993000;28;20205;-88
2023/08/29 13:38:43;;;;;;;2.90;1.23;;;;;;;;;;5007252;28;20208;-87
2023/08/29 13:41:10;;;;;;;2.63;1.50;;;;;;;;;;5021316;28;20201;-88
2023/08/29 13:43:39;;;;;;;3.55;1.10;;;;;;;;;;5011284;28;20256;-85
2023/08/29 13:46:06;;;;;;;2.65;1.38;;;;;;;;;;4995166;28;20229;-85
2023/08/29 13:48:34;;;;;;;2.10;1.00;;;;;;;;;;5003550;28;20205;-86
2023/08/29 13:51:03;;;;;;;2.22;1.10;;;;;;;;;;5012057;28;20284;-87
2023/08/29 13:53:30;;;;;;;2.55;1.25;;;;;;;;;;5012192;28;20197;-87
2023/08/29 13:55:58;;;;;;;3.03;1.17;;;;;;;;;;5012296;28;20220;-88
2023/08/29 13:58:25;;;;;;;2.08;1.20;;;;;;;;;;4986017;28;20203;-87
2023/08/29 14:00:54;;;;;;;2.22;1.23;;;;;;;;;;5012818;28;20247;-87
2023/08/29 14:03:21;;;;;;;2.58;1.48;;;;;;;;;;5012306;28;20209;-88
2023/08/29 14:05:49;;;;;;;2.65;1.27;;;;;;;;;;5012229;28;20293;-86
2023/08/29 14:08:16;;;;;;;4.28;1.52;;;;;;;;;;5012080;28;20283;-86
2023/08/29 14:10:44;;;;;;;2.10;1.20;;;;;;;;;;5020958;28;20193;-85
2023/08/29 14:13:11;;;;;;;2.53;1.20;;;;;;;;;;5011975;28;20292;-88
2023/08/29 14:15:39;;;;;;;1.30;1.10;;;;;;;;;;5012326;28;20251;-88
2023/08/29 14:18:08;;;;;;;1.83;1.08;;;;;;;;;;5012387;28;20236;-87
2023/08/29 14:20:41;;;;;;;2.05;1.17;;;;;;;;;;5012343;28;20236;-87
2023/08/29 14:23:09;;;;;;;1.63;1.33;;;;;;;;;;5012132;28;20304;-88
2023/08/29 14:25:42;;;;;;;2.03;1.35;;;;;;;;;;5012470;28;20673;-87
2023/08/29 14:28:09;;;;;;;2.38;1.40;;;;;;;;;;5013149;28;20225;-87
2023/08/29 14:30:42;;;;;;;1.35;1.05;;;;;;;;;;5014601;28;20219;-87
2023/08/29 14:33:12;;;;;;;3.35;1.48;;;;;;;;;;5006743;28;20208;-86
2023/08/29 14:35:39;;;;;;;1.50;1.10;;;;;;;;;;5005054;28;20239;-85
2023/08/29 14:38:07;;;;;;;1.80;1.20;;;;;;;;;;4987350;28;20656;-87
2023/08/29 14:40:34;;;;;;;2.30;1.45;;;;;;;;;;4996247;28;20198;-87
2023/08/29 14:43:01;;;;;;;1.70;1.30;;;;;;;;;;4995640;28;20232;-85
2023/08/29 14:45:29;;;;;;;1.88;1.20;;;;;;;;;;4996016;28;20204;-89
2023/08/29 14:47:57;;;;;;;5.20;1.45;;;;;;;;;;4996450;28;20738;-85
2023/08/29 14:50:25;;;;;;;1.23;1.00;;;;;;;;;;4995159;28;20197;-85